createdAt,value
2017-04-13T00:00:34.641Z,992.14
2017-04-13T00:01:34.667Z,992.12
2017-04-13T00:02:34.693Z,992.12
2017-04-13T00:03:34.721Z,992.15
2017-04-13T00:04:34.755Z,992.15
2017-04-13T00:05:34.775Z,992.11
2017-04-13T00:06:34.804Z,992.09
2017-04-13T00:07:34.833Z,992.08
2017-04-13T00:08:34.858Z,992.05
2017-04-13T00:09:34.901Z,992.07
2017-04-13T00:10:34.918Z,992.05
2017-04-13T00:11:34.944Z,992.04
2017-04-13T00:12:34.970Z,992.02
2017-04-13T00:13:34.997Z,992.06
2017-04-13T00:14:35.027Z,992.12
2017-04-13T00:15:35.055Z,992.05
2017-04-13T00:16:35.082Z,992.08
2017-04-13T00:17:35.144Z,992.06
2017-04-13T00:18:35.134Z,992.09
2017-04-13T00:19:35.163Z,992.08
2017-04-13T00:20:35.188Z,992.07
2017-04-13T00:21:35.215Z,992.07
2017-04-13T00:22:35.244Z,992.05
2017-04-13T00:23:35.273Z,992.1
2017-04-13T00:24:35.302Z,992.11
2017-04-13T00:25:35.330Z,992.02
2017-04-13T00:26:35.356Z,992.04
2017-04-13T00:27:35.385Z,992.06
2017-04-13T00:28:35.413Z,992.01
2017-04-13T00:29:35.438Z,992
2017-04-13T00:30:35.467Z,991.97
2017-04-13T00:31:35.496Z,992.03
2017-04-13T00:32:35.521Z,992.03
2017-04-13T00:33:35.551Z,992.04
2017-04-13T00:34:35.579Z,992.05
2017-04-13T00:35:35.602Z,992.05
2017-04-13T00:36:43.949Z,992.02
2017-04-13T00:37:44.233Z,992.04
2017-04-13T00:38:44.001Z,992
2017-04-13T00:39:44.029Z,992.03
2017-04-13T00:40:44.061Z,992.04
2017-04-13T00:41:44.091Z,992.02
2017-04-13T00:42:44.367Z,992.03
2017-04-13T00:43:44.141Z,991.98
2017-04-13T00:44:44.173Z,991.96
2017-04-13T00:45:44.194Z,991.93
2017-04-13T00:46:44.218Z,991.94
2017-04-13T00:47:44.503Z,991.97
2017-04-13T00:48:44.279Z,991.94
2017-04-13T00:49:44.308Z,991.91
2017-04-13T00:50:44.339Z,991.94
2017-04-13T00:51:44.374Z,991.89
2017-04-13T00:52:44.651Z,991.83
2017-04-13T00:53:44.428Z,991.86
2017-04-13T00:54:44.447Z,991.83
2017-04-13T00:55:44.481Z,991.81
2017-04-13T00:56:44.506Z,991.91
2017-04-13T00:57:44.790Z,991.83
2017-04-13T00:58:44.565Z,991.77
2017-04-13T00:59:44.591Z,991.81
2017-04-13T01:00:44.620Z,991.83
2017-04-13T01:01:44.646Z,991.84
2017-04-13T01:02:44.926Z,991.85
2017-04-13T01:03:44.703Z,991.88
2017-04-13T01:04:44.727Z,991.89
2017-04-13T01:05:44.754Z,991.85
2017-04-13T01:06:44.782Z,991.84
2017-04-13T01:07:45.065Z,991.87
2017-04-13T01:08:44.840Z,991.8
2017-04-13T01:09:44.867Z,991.8
2017-04-13T01:10:44.896Z,991.85
2017-04-13T01:11:44.921Z,991.8
2017-04-13T01:12:45.201Z,991.8
2017-04-13T01:13:44.979Z,991.82
2017-04-13T01:14:45.003Z,991.74
2017-04-13T01:15:45.032Z,991.74
2017-04-13T01:16:45.061Z,991.77
2017-04-13T01:17:45.340Z,991.78
2017-04-13T01:18:45.119Z,991.76
2017-04-13T01:19:45.139Z,991.77
2017-04-13T01:20:45.171Z,991.76
2017-04-13T01:21:45.197Z,991.77
2017-04-13T01:22:45.477Z,991.8
2017-04-13T01:23:45.255Z,991.79
2017-04-13T01:24:45.283Z,991.83
2017-04-13T01:25:45.308Z,991.84
2017-04-13T01:26:45.336Z,991.86
2017-04-13T01:27:45.613Z,991.89
2017-04-13T01:28:45.391Z,991.92
2017-04-13T01:29:45.420Z,991.92
2017-04-13T01:30:45.442Z,991.95
2017-04-13T01:31:45.468Z,991.98
2017-04-13T01:32:45.755Z,991.99
2017-04-13T01:33:45.526Z,991.96
2017-04-13T01:34:45.555Z,991.97
2017-04-13T01:35:45.582Z,991.97
2017-04-13T01:36:45.603Z,991.95
2017-04-13T01:37:45.887Z,991.92
2017-04-13T01:38:45.666Z,991.94
2017-04-13T01:39:45.689Z,991.95
2017-04-13T01:40:45.716Z,991.95
2017-04-13T01:41:45.743Z,991.97
2017-04-13T01:42:45.775Z,992
2017-04-13T01:43:45.796Z,991.93
2017-04-13T01:44:45.830Z,991.92
2017-04-13T01:45:45.855Z,991.9
2017-04-13T01:46:45.887Z,991.91
2017-04-13T01:47:45.912Z,991.9
2017-04-13T01:48:45.943Z,991.92
2017-04-13T01:49:45.965Z,991.88
2017-04-13T01:50:45.994Z,991.94
2017-04-13T01:51:46.020Z,991.95
2017-04-13T01:52:46.049Z,991.94
2017-04-13T01:53:46.078Z,991.98
2017-04-13T01:54:46.106Z,991.94
2017-04-13T01:55:46.130Z,991.94
2017-04-13T01:56:46.160Z,991.95
2017-04-13T01:57:46.188Z,991.98
2017-04-13T01:58:46.213Z,991.98
2017-04-13T01:59:46.242Z,991.98
2017-04-13T02:00:46.270Z,991.96
2017-04-13T02:01:46.299Z,991.93
2017-04-13T02:02:46.323Z,991.97
2017-04-13T02:03:46.351Z,991.96
2017-04-13T02:04:46.378Z,991.98
2017-04-13T02:05:46.406Z,991.97
2017-04-13T02:06:46.435Z,991.95
2017-04-13T02:07:46.459Z,991.94
2017-04-13T02:08:46.483Z,991.94
2017-04-13T02:09:46.517Z,991.96
2017-04-13T02:10:46.542Z,992.02
2017-04-13T02:11:46.570Z,992.03
2017-04-13T02:12:46.600Z,992.04
2017-04-13T02:13:46.623Z,992.08
2017-04-13T02:14:46.653Z,992.04
2017-04-13T02:15:46.680Z,992.03
2017-04-13T02:16:46.705Z,992.06
2017-04-13T02:17:46.735Z,992.06
2017-04-13T02:18:46.763Z,992.05
2017-04-13T02:19:46.787Z,992.06
2017-04-13T02:20:46.816Z,992.03
2017-04-13T02:21:46.846Z,992.07
2017-04-13T02:22:46.870Z,992.1
2017-04-13T02:23:46.899Z,992.02
2017-04-13T02:24:46.924Z,992.09
2017-04-13T02:25:46.953Z,992.04
2017-04-13T02:26:46.981Z,992.05
2017-04-13T02:27:47.006Z,992.03
2017-04-13T02:28:47.039Z,992.04
2017-04-13T02:29:47.063Z,991.99
2017-04-13T02:30:47.088Z,992.05
2017-04-13T02:31:47.129Z,992
2017-04-13T02:32:47.146Z,991.98
2017-04-13T02:33:47.171Z,991.94
2017-04-13T02:34:47.200Z,992.01
2017-04-13T02:35:47.224Z,991.98
2017-04-13T02:36:47.253Z,992.02
2017-04-13T02:37:47.282Z,991.98
2017-04-13T02:38:47.306Z,992.01
2017-04-13T02:39:47.336Z,992.03
2017-04-13T02:40:47.363Z,992.07
2017-04-13T02:41:47.388Z,992.07
2017-04-13T02:42:47.413Z,992.13
2017-04-13T02:43:47.447Z,992.12
2017-04-13T02:44:47.471Z,992.13
2017-04-13T02:45:47.500Z,992.18
2017-04-13T02:46:47.525Z,992.14
2017-04-13T02:47:47.554Z,992.17
2017-04-13T02:48:47.582Z,992.17
2017-04-13T02:49:47.607Z,992.2
2017-04-13T02:50:47.635Z,992.24
2017-04-13T02:51:47.662Z,992.28
2017-04-13T02:52:47.689Z,992.27
2017-04-13T02:53:47.718Z,992.29
2017-04-13T02:54:47.746Z,992.3
2017-04-13T02:55:47.771Z,992.3
2017-04-13T02:56:47.800Z,992.27
2017-04-13T02:57:47.824Z,992.36
2017-04-13T02:58:47.853Z,992.31
2017-04-13T02:59:47.882Z,992.26
2017-04-13T03:00:47.906Z,992.38
2017-04-13T03:01:47.937Z,992.32
2017-04-13T03:02:47.962Z,992.35
2017-04-13T03:03:47.990Z,992.35
2017-04-13T03:04:48.018Z,992.39
2017-04-13T03:05:48.043Z,992.39
2017-04-13T03:06:48.072Z,992.39
2017-04-13T03:07:48.098Z,992.41
2017-04-13T03:08:48.125Z,992.4
2017-04-13T03:09:48.154Z,992.38
2017-04-13T03:10:48.183Z,992.36
2017-04-13T03:11:48.206Z,992.4
2017-04-13T03:12:48.236Z,992.45
2017-04-13T03:13:48.261Z,992.42
2017-04-13T03:14:48.335Z,992.42
2017-04-13T03:15:48.318Z,992.48
2017-04-13T03:16:48.343Z,992.44
2017-04-13T03:17:48.377Z,992.48
2017-04-13T03:18:48.399Z,992.51
2017-04-13T03:19:48.425Z,992.5
2017-04-13T03:20:48.456Z,992.53
2017-04-13T03:21:48.483Z,992.56
2017-04-13T03:22:48.508Z,992.53
2017-04-13T03:23:48.537Z,992.51
2017-04-13T03:24:48.562Z,992.55
2017-04-13T03:25:48.590Z,992.52
2017-04-13T03:26:48.621Z,992.59
2017-04-13T03:27:48.645Z,992.59
2017-04-13T03:28:48.673Z,992.56
2017-04-13T03:29:48.698Z,992.56
2017-04-13T03:30:48.725Z,992.63
2017-04-13T03:31:48.753Z,992.61
2017-04-13T03:32:48.779Z,992.62
2017-04-13T03:33:48.804Z,992.61
2017-04-13T03:34:48.829Z,992.61
2017-04-13T03:35:48.863Z,992.59
2017-04-13T03:36:48.890Z,992.58
2017-04-13T03:37:48.916Z,992.65
2017-04-13T03:38:49.196Z,992.65
2017-04-13T03:39:48.972Z,992.62
2017-04-13T03:40:48.997Z,992.64
2017-04-13T03:41:49.027Z,992.63
2017-04-13T03:42:49.051Z,992.63
2017-04-13T03:43:49.330Z,992.63
2017-04-13T03:44:49.104Z,992.61
2017-04-13T03:45:49.133Z,992.56
2017-04-13T03:46:49.162Z,992.56
2017-04-13T03:47:49.186Z,992.52
2017-04-13T03:48:49.466Z,992.55
2017-04-13T03:49:49.241Z,992.55
2017-04-13T03:50:49.267Z,992.52
2017-04-13T03:51:49.293Z,992.5
2017-04-13T03:52:49.322Z,992.49
2017-04-13T03:53:49.602Z,992.53
2017-04-13T03:54:49.375Z,992.49
2017-04-13T03:55:49.403Z,992.44
2017-04-13T03:56:49.433Z,992.46
2017-04-13T03:57:49.457Z,992.53
2017-04-13T03:58:49.737Z,992.53
2017-04-13T03:59:49.511Z,992.55
2017-04-13T04:00:49.540Z,992.52
2017-04-13T04:01:49.567Z,992.53
2017-04-13T04:02:49.593Z,992.55
2017-04-13T04:03:50.156Z,992.52
2017-04-13T04:04:49.647Z,992.55
2017-04-13T04:05:49.675Z,992.61
2017-04-13T04:06:49.699Z,992.61
2017-04-13T04:07:49.728Z,992.6
2017-04-13T04:08:49.758Z,992.6
2017-04-13T04:09:49.782Z,992.64
2017-04-13T04:10:49.811Z,992.6
2017-04-13T04:11:49.836Z,992.65
2017-04-13T04:12:49.866Z,992.67
2017-04-13T04:13:49.888Z,992.65
2017-04-13T04:14:49.918Z,992.66
2017-04-13T04:15:49.995Z,992.71
2017-04-13T04:16:49.973Z,992.72
2017-04-13T04:17:50.004Z,992.76
2017-04-13T04:18:50.026Z,992.77
2017-04-13T04:19:50.053Z,992.79
2017-04-13T04:20:50.084Z,992.77
2017-04-13T04:21:50.107Z,992.75
2017-04-13T04:22:50.136Z,992.75
2017-04-13T04:23:50.160Z,992.74
2017-04-13T04:24:50.185Z,992.73
2017-04-13T04:25:50.214Z,992.74
2017-04-13T04:26:50.243Z,992.77
2017-04-13T04:27:50.272Z,992.79
2017-04-13T04:28:50.297Z,992.79
2017-04-13T04:29:50.317Z,992.81
2017-04-13T04:30:50.350Z,992.75
2017-04-13T04:31:50.376Z,992.73
2017-04-13T04:32:50.405Z,992.69
2017-04-13T04:33:50.433Z,992.71
2017-04-13T04:34:50.462Z,992.7
2017-04-13T04:35:50.486Z,992.73
2017-04-13T04:36:50.515Z,992.71
2017-04-13T04:37:50.539Z,992.69
2017-04-13T04:38:50.573Z,992.71
2017-04-13T04:39:50.593Z,992.68
2017-04-13T04:40:50.626Z,992.71
2017-04-13T04:41:50.647Z,992.77
2017-04-13T04:42:50.675Z,992.74
2017-04-13T04:43:50.704Z,992.73
2017-04-13T04:44:50.729Z,992.76
2017-04-13T04:45:50.758Z,992.7
2017-04-13T04:46:50.782Z,992.74
2017-04-13T04:47:50.811Z,992.77
2017-04-13T04:48:50.836Z,992.8
2017-04-13T04:49:50.864Z,992.81
2017-04-13T04:50:50.890Z,992.82
2017-04-13T04:51:50.919Z,992.84
2017-04-13T04:52:50.947Z,992.87
2017-04-13T04:53:50.975Z,992.88
2017-04-13T04:54:51.253Z,992.89
2017-04-13T04:55:51.030Z,992.87
2017-04-13T04:56:51.056Z,992.88
2017-04-13T04:57:51.083Z,992.92
2017-04-13T04:58:51.107Z,992.96
2017-04-13T04:59:51.435Z,992.95
2017-04-13T05:00:51.164Z,992.94
2017-04-13T05:01:51.190Z,992.91
2017-04-13T05:02:51.216Z,992.96
2017-04-13T05:03:51.245Z,992.93
2017-04-13T05:04:51.519Z,992.92
2017-04-13T05:05:51.295Z,992.95
2017-04-13T05:06:51.324Z,992.98
2017-04-13T05:07:51.350Z,992.89
2017-04-13T05:08:51.380Z,992.94
2017-04-13T05:09:51.654Z,992.98
2017-04-13T05:10:51.433Z,992.95
2017-04-13T05:11:51.462Z,993.02
2017-04-13T05:12:51.483Z,993.06
2017-04-13T05:13:51.515Z,993.04
2017-04-13T05:14:51.791Z,993.06
2017-04-13T05:15:51.563Z,993.08
2017-04-13T05:16:51.597Z,993.09
2017-04-13T05:17:51.617Z,993.09
2017-04-13T05:18:51.646Z,993.12
2017-04-13T05:19:51.922Z,993.1
2017-04-13T05:20:51.703Z,993.1
2017-04-13T05:21:51.725Z,993.07
2017-04-13T05:22:51.758Z,993.1
2017-04-13T05:23:51.782Z,993.1
2017-04-13T05:24:51.810Z,993.07
2017-04-13T05:25:51.836Z,993.1
2017-04-13T05:26:51.865Z,993.13
2017-04-13T05:27:51.889Z,993.1
2017-04-13T05:28:51.918Z,993.11
2017-04-13T05:29:51.942Z,993.13
2017-04-13T05:30:51.971Z,993.17
2017-04-13T05:31:51.995Z,993.2
2017-04-13T05:32:52.025Z,993.22
2017-04-13T05:33:52.052Z,993.21
2017-04-13T05:34:52.078Z,993.21
2017-04-13T05:35:52.106Z,993.26
2017-04-13T05:36:52.127Z,993.23
2017-04-13T05:37:52.160Z,993.29
2017-04-13T05:38:52.185Z,993.27
2017-04-13T05:39:52.214Z,993.26
2017-04-13T05:40:52.238Z,993.29
2017-04-13T05:41:52.267Z,993.27
2017-04-13T05:42:52.293Z,993.29
2017-04-13T05:43:52.320Z,993.26
2017-04-13T05:44:52.350Z,993.28
2017-04-13T05:45:52.375Z,993.28
2017-04-13T05:46:52.403Z,993.29
2017-04-13T05:47:52.424Z,993.17
2017-04-13T05:48:52.457Z,993.2
2017-04-13T05:49:52.480Z,993.28
2017-04-13T05:50:52.510Z,993.27
2017-04-13T05:51:52.539Z,993.33
2017-04-13T05:52:52.560Z,993.3
2017-04-13T05:53:52.592Z,993.4
2017-04-13T05:54:52.613Z,993.36
2017-04-13T05:55:52.640Z,993.36
2017-04-13T05:56:52.670Z,993.44
2017-04-13T05:57:52.698Z,993.46
2017-04-13T05:58:52.724Z,993.46
2017-04-13T05:59:52.753Z,993.45
2017-04-13T06:00:52.777Z,993.47
2017-04-13T06:01:52.806Z,993.49
2017-04-13T06:02:52.836Z,993.53
2017-04-13T06:03:52.860Z,993.55
2017-04-13T06:04:52.889Z,993.59
2017-04-13T06:05:52.913Z,993.59
2017-04-13T06:06:52.943Z,993.62
2017-04-13T06:07:52.966Z,993.61
2017-04-13T06:08:52.995Z,993.6
2017-04-13T06:09:53.020Z,993.58
2017-04-13T06:10:53.048Z,993.6
2017-04-13T06:11:53.073Z,993.61
2017-04-13T06:12:53.105Z,993.64
2017-04-13T06:13:53.133Z,993.64
2017-04-13T06:14:53.156Z,993.66
2017-04-13T06:15:53.186Z,993.69
2017-04-13T06:16:53.208Z,993.72
2017-04-13T06:17:53.238Z,993.69
2017-04-13T06:18:53.258Z,993.7
2017-04-13T06:19:53.291Z,993.71
2017-04-13T06:20:53.315Z,993.75
2017-04-13T06:21:53.345Z,993.78
2017-04-13T06:22:53.370Z,993.84
2017-04-13T06:23:53.399Z,993.82
2017-04-13T06:24:53.428Z,993.84
2017-04-13T06:25:53.453Z,993.88
2017-04-13T06:26:53.481Z,993.85
2017-04-13T06:27:53.504Z,993.83
2017-04-13T06:28:53.530Z,993.82
2017-04-13T06:29:53.560Z,993.83
2017-04-13T06:30:53.588Z,993.89
2017-04-13T06:31:53.616Z,993.87
2017-04-13T06:32:53.642Z,993.87
2017-04-13T06:33:53.671Z,993.91
2017-04-13T06:34:53.696Z,993.88
2017-04-13T06:35:53.723Z,993.86
2017-04-13T06:36:53.753Z,993.87
2017-04-13T06:37:53.776Z,993.87
2017-04-13T06:38:53.805Z,993.9
2017-04-13T06:39:53.831Z,993.9
2017-04-13T06:40:53.859Z,993.96
2017-04-13T06:41:53.883Z,993.92
2017-04-13T06:42:53.912Z,993.95
2017-04-13T06:43:53.938Z,993.96
2017-04-13T06:44:53.967Z,993.93
2017-04-13T06:45:53.994Z,994.01
2017-04-13T06:46:54.019Z,993.99
2017-04-13T06:47:54.048Z,994
2017-04-13T06:48:54.078Z,993.96
2017-04-13T06:49:54.102Z,993.97
2017-04-13T06:50:54.126Z,993.98
2017-04-13T06:51:54.157Z,993.95
2017-04-13T06:52:54.180Z,993.96
2017-04-13T06:53:54.208Z,993.94
2017-04-13T06:54:54.233Z,993.96
2017-04-13T06:55:54.263Z,993.96
2017-04-13T06:56:54.292Z,994
2017-04-13T06:57:54.315Z,994.01
2017-04-13T06:58:54.344Z,993.99
2017-04-13T06:59:54.370Z,993.99
2017-04-13T07:00:54.398Z,994.05
2017-04-13T07:01:54.422Z,994.02
2017-04-13T07:02:54.452Z,994.05
2017-04-13T07:03:54.478Z,994.07
2017-04-13T07:04:54.504Z,994.06
2017-04-13T07:05:54.533Z,994.04
2017-04-13T07:06:54.558Z,994.06
2017-04-13T07:07:54.586Z,994.04
2017-04-13T07:08:54.615Z,994.07
2017-04-13T07:09:54.641Z,994.07
2017-04-13T07:10:54.670Z,994.03
2017-04-13T07:11:54.693Z,994
2017-04-13T07:12:54.719Z,994.07
2017-04-13T07:13:54.752Z,994.07
2017-04-13T07:14:54.777Z,994.02
2017-04-13T07:15:54.801Z,994.04
2017-04-13T07:16:54.829Z,994.04
2017-04-13T07:17:54.859Z,993.99
2017-04-13T07:18:54.884Z,994.03
2017-04-13T07:19:54.908Z,993.98
2017-04-13T07:20:54.938Z,994.01
2017-04-13T07:21:54.961Z,994
2017-04-13T07:22:54.991Z,993.99
2017-04-13T07:23:55.016Z,994.05
2017-04-13T07:24:55.044Z,994.04
2017-04-13T07:25:55.068Z,994.07
2017-04-13T07:26:55.097Z,994.07
2017-04-13T07:27:55.126Z,994.06
2017-04-13T07:28:55.151Z,994.03
2017-04-13T07:29:55.178Z,994.03
2017-04-13T07:30:55.201Z,994.09
2017-04-13T07:31:55.233Z,994.1
2017-04-13T07:32:55.258Z,994.09
2017-04-13T07:33:55.286Z,994.12
2017-04-13T07:34:55.309Z,994.11
2017-04-13T07:35:55.591Z,994.11
2017-04-13T07:36:55.365Z,994.13
2017-04-13T07:37:55.393Z,994.18
2017-04-13T07:38:55.416Z,994.2
2017-04-13T07:39:55.445Z,994.14
2017-04-13T07:40:55.722Z,994.17
2017-04-13T07:41:55.500Z,994.16
2017-04-13T07:42:55.525Z,994.26
2017-04-13T07:43:55.553Z,994.26
2017-04-13T07:44:55.582Z,994.26
2017-04-13T07:45:55.857Z,994.25
2017-04-13T07:46:55.627Z,994.29
2017-04-13T07:47:55.661Z,994.23
2017-04-13T07:48:55.688Z,994.23
2017-04-13T07:49:55.714Z,994.28
2017-04-13T07:50:55.995Z,994.32
2017-04-13T07:51:55.768Z,994.29
2017-04-13T07:52:55.793Z,994.36
2017-04-13T07:53:55.821Z,994.32
2017-04-13T07:54:55.850Z,994.31
2017-04-13T07:55:55.878Z,994.34
2017-04-13T07:56:55.898Z,994.33
2017-04-13T07:57:55.928Z,994.32
2017-04-13T07:58:55.957Z,994.39
2017-04-13T07:59:55.982Z,994.41
2017-04-13T08:00:56.012Z,994.39
2017-04-13T08:01:56.036Z,994.43
2017-04-13T08:02:56.063Z,994.4
2017-04-13T08:03:56.087Z,994.39
2017-04-13T08:04:56.117Z,994.37
2017-04-13T08:05:56.147Z,994.41
2017-04-13T08:06:56.171Z,994.42
2017-04-13T08:07:56.199Z,994.5
2017-04-13T08:08:56.227Z,994.48
2017-04-13T08:09:56.253Z,994.49
2017-04-13T08:10:56.277Z,994.48
2017-04-13T08:11:56.307Z,994.46
2017-04-13T08:12:56.331Z,994.42
2017-04-13T08:13:56.361Z,994.43
2017-04-13T08:14:56.385Z,994.45
2017-04-13T08:15:56.414Z,994.48
2017-04-13T08:16:56.438Z,994.47
2017-04-13T08:17:56.463Z,994.51
2017-04-13T08:18:56.492Z,994.52
2017-04-13T08:19:56.520Z,994.52
2017-04-13T08:20:56.550Z,994.53
2017-04-13T08:21:56.575Z,994.52
2017-04-13T08:22:56.603Z,994.52
2017-04-13T08:23:56.633Z,994.54
2017-04-13T08:24:56.657Z,994.6
2017-04-13T08:25:56.681Z,994.58
2017-04-13T08:26:56.713Z,994.54
2017-04-13T08:27:56.741Z,994.54
2017-04-13T08:28:56.763Z,994.53
2017-04-13T08:29:56.792Z,994.49
2017-04-13T08:30:56.816Z,994.5
2017-04-13T08:31:56.845Z,994.5
2017-04-13T08:32:56.873Z,994.55
2017-04-13T08:33:56.898Z,994.54
2017-04-13T08:34:56.926Z,994.55
2017-04-13T08:35:56.952Z,994.55
2017-04-13T08:36:56.982Z,994.54
2017-04-13T08:37:57.006Z,994.59
2017-04-13T08:38:57.031Z,994.62
2017-04-13T08:39:57.059Z,994.57
2017-04-13T08:40:57.088Z,994.55
2017-04-13T08:41:57.113Z,994.57
2017-04-13T08:42:57.141Z,994.58
2017-04-13T08:43:57.171Z,994.59
2017-04-13T08:44:57.196Z,994.6
2017-04-13T08:45:57.224Z,994.61
2017-04-13T08:46:57.248Z,994.65
2017-04-13T08:47:57.277Z,994.67
2017-04-13T08:48:57.298Z,994.66
2017-04-13T08:49:57.329Z,994.64
2017-04-13T08:50:57.360Z,994.61
2017-04-13T08:51:57.384Z,994.66
2017-04-13T08:52:57.412Z,994.67
2017-04-13T08:53:57.436Z,994.71
2017-04-13T08:54:57.466Z,994.7
2017-04-13T08:55:57.491Z,994.74
2017-04-13T08:56:57.519Z,994.7
2017-04-13T08:57:57.549Z,994.7
2017-04-13T08:58:57.573Z,994.73
2017-04-13T08:59:57.602Z,994.74
2017-04-13T09:00:57.622Z,994.72
2017-04-13T09:01:57.655Z,994.75
2017-04-13T09:02:57.680Z,994.81
2017-04-13T09:03:57.709Z,994.73
2017-04-13T09:04:57.738Z,994.74
2017-04-13T09:05:57.763Z,994.75
2017-04-13T09:06:57.792Z,994.78
2017-04-13T09:07:57.815Z,994.9
2017-04-13T09:08:57.844Z,994.85
2017-04-13T09:09:57.868Z,994.83
2017-04-13T09:10:57.898Z,994.83
2017-04-13T09:11:57.923Z,994.85
2017-04-13T09:12:57.953Z,994.83
2017-04-13T09:13:57.977Z,994.85
2017-04-13T09:14:58.006Z,994.85
2017-04-13T09:15:58.035Z,994.84
2017-04-13T09:16:58.062Z,994.81
2017-04-13T09:17:58.087Z,994.83
2017-04-13T09:18:58.113Z,994.76
2017-04-13T09:19:58.137Z,994.77
2017-04-13T09:20:58.165Z,994.82
2017-04-13T09:21:58.194Z,994.84
2017-04-13T09:22:58.224Z,994.82
2017-04-13T09:23:58.285Z,994.87
2017-04-13T09:24:58.272Z,994.85
2017-04-13T09:25:58.302Z,994.86
2017-04-13T09:26:58.331Z,994.86
2017-04-13T09:27:58.354Z,994.85
2017-04-13T09:28:58.383Z,994.83
2017-04-13T09:29:58.409Z,994.86
2017-04-13T09:30:58.437Z,994.83
2017-04-13T09:31:58.466Z,994.85
2017-04-13T09:32:58.492Z,994.81
2017-04-13T09:33:58.518Z,994.85
2017-04-13T09:34:58.543Z,994.88
2017-04-13T09:35:58.573Z,994.89
2017-04-13T09:36:58.597Z,994.88
2017-04-13T09:37:58.634Z,994.82
2017-04-13T09:38:58.651Z,994.81
2017-04-13T09:39:58.679Z,994.81
2017-04-13T09:40:58.709Z,994.91
2017-04-13T09:41:58.737Z,994.87
2017-04-13T09:42:58.763Z,994.85
2017-04-13T09:43:58.790Z,994.83
2017-04-13T09:44:58.815Z,994.84
2017-04-13T09:45:58.840Z,994.85
2017-04-13T09:46:58.869Z,994.88
2017-04-13T09:47:58.898Z,994.85
2017-04-13T09:48:58.930Z,994.83
2017-04-13T09:49:58.952Z,994.77
2017-04-13T09:50:58.981Z,994.79
2017-04-13T09:51:59.005Z,994.79
2017-04-13T09:52:59.033Z,994.79
2017-04-13T09:53:59.059Z,994.81
2017-04-13T09:54:59.087Z,994.83
2017-04-13T09:55:59.117Z,994.82
2017-04-13T09:56:59.141Z,994.85
2017-04-13T09:57:59.178Z,994.79
2017-04-13T09:58:59.194Z,994.81
2017-04-13T09:59:59.223Z,994.84
2017-04-13T10:00:59.248Z,994.8
2017-04-13T10:01:59.276Z,994.79
2017-04-13T10:02:59.306Z,994.76
2017-04-13T10:03:59.331Z,994.8
2017-04-13T10:04:59.358Z,994.77
2017-04-13T10:05:59.379Z,994.74
2017-04-13T10:06:59.412Z,994.78
2017-04-13T10:07:59.442Z,994.74
2017-04-13T10:08:59.461Z,994.81
2017-04-13T10:09:59.492Z,994.79
2017-04-13T10:10:59.519Z,994.8
2017-04-13T10:11:59.548Z,994.75
2017-04-13T10:12:59.574Z,994.82
2017-04-13T10:13:59.602Z,994.75
2017-04-13T10:14:59.630Z,994.74
2017-04-13T10:15:59.656Z,994.75
2017-04-13T10:16:59.684Z,994.76
2017-04-13T10:17:59.708Z,994.76
2017-04-13T10:18:59.737Z,994.73
2017-04-13T10:19:59.758Z,994.66
2017-04-13T10:20:59.790Z,994.71
2017-04-13T10:21:59.820Z,994.74
2017-04-13T10:22:59.844Z,994.75
2017-04-13T10:23:59.873Z,994.71
2017-04-13T10:24:59.899Z,994.67
2017-04-13T10:25:59.926Z,994.65
2017-04-13T10:26:59.952Z,994.71
2017-04-13T10:27:59.980Z,994.69
2017-04-13T10:29:00.008Z,994.68
2017-04-13T10:30:00.034Z,994.61
2017-04-13T10:31:00.063Z,994.59
2017-04-13T10:32:00.083Z,994.57
2017-04-13T10:33:00.116Z,994.59
2017-04-13T10:34:00.141Z,994.55
2017-04-13T10:35:00.164Z,994.58
2017-04-13T10:36:00.197Z,994.56
2017-04-13T10:37:00.222Z,994.61
2017-04-13T10:38:00.252Z,994.61
2017-04-13T10:39:00.274Z,994.55
2017-04-13T10:40:00.305Z,994.57
2017-04-13T10:41:00.334Z,994.58
2017-04-13T10:42:00.355Z,994.56
2017-04-13T10:43:00.388Z,994.63
2017-04-13T10:44:00.416Z,994.57
2017-04-13T10:45:00.441Z,994.57
2017-04-13T10:46:00.467Z,994.53
2017-04-13T10:47:00.497Z,994.58
2017-04-13T10:48:00.523Z,994.5
2017-04-13T10:49:00.552Z,994.5
2017-04-13T10:50:00.580Z,994.49
2017-04-13T10:51:00.605Z,994.55
2017-04-13T10:52:00.630Z,994.6
2017-04-13T10:53:00.703Z,994.49
2017-04-13T10:54:00.687Z,994.52
2017-04-13T10:55:00.715Z,994.48
2017-04-13T10:56:00.745Z,994.51
2017-04-13T10:57:00.770Z,994.55
2017-04-13T10:58:00.801Z,994.56
2017-04-13T10:59:00.828Z,994.52
2017-04-13T11:00:00.847Z,994.49
2017-04-13T11:01:00.900Z,994.49
2017-04-13T11:02:00.907Z,994.46
2017-04-13T11:03:00.930Z,994.49
2017-04-13T11:04:00.962Z,994.46
2017-04-13T11:05:00.991Z,994.42
2017-04-13T11:06:01.018Z,994.45
2017-04-13T11:07:01.044Z,994.44
2017-04-13T11:08:01.069Z,994.41
2017-04-13T11:09:01.127Z,994.4
2017-04-13T11:10:01.128Z,994.39
2017-04-13T11:11:01.151Z,994.41
2017-04-13T11:12:01.432Z,994.41
2017-04-13T11:13:01.209Z,994.33
2017-04-13T11:14:01.239Z,994.35
2017-04-13T11:15:01.265Z,994.32
2017-04-13T11:16:01.290Z,994.36
2017-04-13T11:17:01.572Z,994.33
2017-04-13T11:18:01.344Z,994.32
2017-04-13T11:19:01.369Z,994.31
2017-04-13T11:20:01.403Z,994.33
2017-04-13T11:21:01.434Z,994.36
2017-04-13T11:22:01.707Z,994.43
2017-04-13T11:23:01.485Z,994.45
2017-04-13T11:24:01.513Z,994.5
2017-04-13T11:25:01.535Z,994.34
2017-04-13T11:26:01.567Z,994.35
2017-04-13T11:27:01.849Z,994.39
2017-04-13T11:28:01.622Z,994.41
2017-04-13T11:29:01.649Z,994.43
2017-04-13T11:30:01.679Z,994.61
2017-04-13T11:31:01.703Z,994.32
2017-04-13T11:32:01.983Z,994.31
2017-04-13T11:33:01.762Z,994.26
2017-04-13T11:34:01.781Z,994.14
2017-04-13T11:35:01.814Z,994.22
2017-04-13T11:36:01.844Z,994.23
2017-04-13T11:37:01.866Z,994.21
2017-04-13T11:38:01.897Z,994.25
2017-04-13T11:39:01.924Z,994.26
2017-04-13T11:40:01.950Z,994.25
2017-04-13T11:41:01.978Z,994.23
2017-04-13T11:42:02.004Z,994.2
2017-04-13T11:43:02.036Z,994.29
2017-04-13T11:44:02.062Z,994.18
2017-04-13T11:45:02.090Z,994.3
2017-04-13T11:46:02.119Z,994.6
2017-04-13T11:47:02.143Z,994.63
2017-04-13T11:48:02.171Z,994.66
2017-04-13T11:49:02.200Z,994.64
2017-04-13T11:50:02.229Z,994.31
2017-04-13T11:51:02.254Z,994.44
2017-04-13T11:52:02.282Z,994.5
2017-04-13T11:53:02.310Z,994.51
2017-04-13T11:54:02.342Z,994.45
2017-04-13T11:55:02.369Z,994.49
2017-04-13T11:56:02.394Z,994.46
2017-04-13T11:57:02.421Z,994.4
2017-04-13T11:58:02.450Z,994.52
2017-04-13T11:59:02.482Z,994.51
2017-04-13T12:00:02.509Z,994.4
2017-04-13T12:01:02.538Z,994.12
2017-04-13T12:02:02.561Z,994.04
2017-04-13T12:03:02.591Z,994.04
2017-04-13T12:04:02.620Z,994.11
2017-04-13T12:05:02.651Z,994.4
2017-04-13T12:06:02.678Z,994.04
2017-04-13T12:07:02.703Z,994.04
2017-04-13T12:08:02.735Z,993.99
2017-04-13T12:09:02.766Z,994.05
2017-04-13T12:10:02.791Z,994.04
2017-04-13T12:11:02.821Z,993.98
2017-04-13T12:12:02.854Z,993.95
2017-04-13T12:13:02.878Z,993.96
2017-04-13T12:14:02.911Z,994.03
2017-04-13T12:15:02.940Z,994.2
2017-04-13T12:16:02.969Z,993.86
2017-04-13T12:17:02.992Z,993.93
2017-04-13T12:18:03.031Z,993.9
2017-04-13T12:19:03.056Z,993.94
2017-04-13T12:20:03.079Z,993.95
2017-04-13T12:21:03.114Z,994.01
2017-04-13T12:22:03.142Z,994.19
2017-04-13T12:23:03.170Z,994.26
2017-04-13T12:24:03.194Z,993.96
2017-04-13T12:25:03.223Z,994.44
2017-04-13T12:26:03.257Z,994.07
2017-04-13T12:27:03.285Z,994
2017-04-13T12:28:03.311Z,994.12
2017-04-13T12:29:03.338Z,994.45
2017-04-13T12:30:03.370Z,994.31
2017-04-13T12:31:03.391Z,994.54
2017-04-13T12:32:03.425Z,994.32